sensor_id;sensor_type;location;lat;lon;timestamp;P1;durP1;ratioP1;P2;durP2;ratioP2
11024;SDS011;22890;51.820;8.682;2023-02-15T00:00:06;4.00;;;3.60;;
11024;SDS011;22890;51.820;8.682;2023-02-15T00:02:36;4.03;;;2.50;;
11024;SDS011;22890;51.820;8.682;2023-02-15T00:05:03;5.03;;;3.03;;
11024;SDS011;22890;51.820;8.682;2023-02-15T00:07:30;5.13;;;2.97;;
11024;SDS011;22890;51.820;8.682;2023-02-15T00:09:58;4.87;;;3.23;;
11024;SDS011;22890;51.820;8.682;2023-02-15T00:12:25;4.33;;;3.17;;
11024;SDS011;22890;51.820;8.682;2023-02-15T00:14:52;5.05;;;3.50;;
11024;SDS011;22890;51.820;8.682;2023-02-15T00:17:20;5.37;;;3.13;;
11024;SDS011;22890;51.820;8.682;2023-02-15T00:19:47;4.37;;;2.80;;
11024;SDS011;22890;51.820;8.682;2023-02-15T00:22:13;3.90;;;2.43;;
11024;SDS011;22890;51.820;8.682;2023-02-15T00:24:40;4.30;;;2.63;;
11024;SDS011;22890;51.820;8.682;2023-02-15T00:27:10;5.53;;;3.27;;
11024;SDS011;22890;51.820;8.682;2023-02-15T00:29:38;4.60;;;2.93;;
11024;SDS011;22890;51.820;8.682;2023-02-15T00:32:05;5.53;;;3.20;;
11024;SDS011;22890;51.820;8.682;2023-02-15T00:34:32;3.77;;;2.87;;
11024;SDS011;22890;51.820;8.682;2023-02-15T00:36:59;4.57;;;3.13;;
11024;SDS011;22890;51.820;8.682;2023-02-15T00:39:28;3.73;;;2.70;;
11024;SDS011;22890;51.820;8.682;2023-02-15T00:41:55;5.77;;;2.80;;
11024;SDS011;22890;51.820;8.682;2023-02-15T00:44:22;3.23;;;2.37;;
11024;SDS011;22890;51.820;8.682;2023-02-15T00:46:50;4.60;;;2.70;;
11024;SDS011;22890;51.820;8.682;2023-02-15T00:49:16;4.40;;;1.90;;
11024;SDS011;22890;51.820;8.682;2023-02-15T00:51:43;4.27;;;2.60;;
11024;SDS011;22890;51.820;8.682;2023-02-15T00:54:10;3.20;;;2.40;;
11024;SDS011;22890;51.820;8.682;2023-02-15T00:56:40;2.90;;;2.07;;
11024;SDS011;22890;51.820;8.682;2023-02-15T00:59:08;2.43;;;2.00;;
11024;SDS011;22890;51.820;8.682;2023-02-15T01:01:35;6.30;;;2.27;;
11024;SDS011;22890;51.820;8.682;2023-02-15T01:04:02;4.37;;;2.70;;
11024;SDS011;22890;51.820;8.682;2023-02-15T01:06:29;3.97;;;2.80;;
11024;SDS011;22890;51.820;8.682;2023-02-15T01:08:56;3.83;;;2.23;;
11024;SDS011;22890;51.820;8.682;2023-02-15T01:11:23;5.63;;;2.90;;
11024;SDS011;22890;51.820;8.682;2023-02-15T01:13:51;2.73;;;2.17;;
11024;SDS011;22890;51.820;8.682;2023-02-15T01:16:20;4.27;;;2.63;;
11024;SDS011;22890;51.820;8.682;2023-02-15T01:18:48;3.57;;;1.90;;
11024;SDS011;22890;51.820;8.682;2023-02-15T01:21:16;2.63;;;1.80;;
11024;SDS011;22890;51.820;8.682;2023-02-15T01:23:45;3.30;;;2.07;;
11024;SDS011;22890;51.820;8.682;2023-02-15T01:26:13;2.30;;;2.10;;
11024;SDS011;22890;51.820;8.682;2023-02-15T01:28:42;3.03;;;1.77;;
11024;SDS011;22890;51.820;8.682;2023-02-15T01:31:14;3.77;;;2.40;;
11024;SDS011;22890;51.820;8.682;2023-02-15T01:33:44;4.33;;;1.70;;
11024;SDS011;22890;51.820;8.682;2023-02-15T01:36:11;4.77;;;2.00;;
11024;SDS011;22890;51.820;8.682;2023-02-15T01:38:38;1.93;;;1.70;;
11024;SDS011;22890;51.820;8.682;2023-02-15T01:41:08;3.30;;;2.13;;
11024;SDS011;22890;51.820;8.682;2023-02-15T01:43:53;3.33;;;2.37;;
11024;SDS011;22890;51.820;8.682;2023-02-15T01:46:26;3.47;;;1.60;;
11024;SDS011;22890;51.820;8.682;2023-02-15T01:48:56;1.70;;;1.60;;
11024;SDS011;22890;51.820;8.682;2023-02-15T01:51:28;3.60;;;1.67;;
11024;SDS011;22890;51.820;8.682;2023-02-15T01:54:01;2.70;;;1.70;;
11024;SDS011;22890;51.820;8.682;2023-02-15T01:56:34;1.80;;;1.30;;
11024;SDS011;22890;51.820;8.682;2023-02-15T01:59:04;2.53;;;1.40;;
11024;SDS011;22890;51.820;8.682;2023-02-15T02:01:35;2.73;;;1.60;;
11024;SDS011;22890;51.820;8.682;2023-02-15T02:04:08;2.03;;;1.30;;
11024;SDS011;22890;51.820;8.682;2023-02-15T02:06:46;2.30;;;1.60;;
11024;SDS011;22890;51.820;8.682;2023-02-15T02:09:14;1.73;;;1.10;;
11024;SDS011;22890;51.820;8.682;2023-02-15T02:11:42;2.60;;;1.37;;
11024;SDS011;22890;51.820;8.682;2023-02-15T02:14:12;3.13;;;1.40;;
11024;SDS011;22890;51.820;8.682;2023-02-15T02:16:46;2.17;;;1.50;;
11024;SDS011;22890;51.820;8.682;2023-02-15T02:28:37;1.57;;;1.30;;
11024;SDS011;22890;51.820;8.682;2023-02-15T02:31:23;1.50;;;1.03;;
11024;SDS011;22890;51.820;8.682;2023-02-15T02:43:21;2.97;;;1.57;;
11024;SDS011;22890;51.820;8.682;2023-02-15T02:46:00;2.67;;;1.77;;
11024;SDS011;22890;51.820;8.682;2023-02-15T02:48:32;2.80;;;1.70;;
11024;SDS011;22890;51.820;8.682;2023-02-15T02:51:00;2.07;;;1.50;;
11024;SDS011;22890;51.820;8.682;2023-02-15T02:53:26;1.80;;;1.20;;
11024;SDS011;22890;51.820;8.682;2023-02-15T02:55:59;2.40;;;1.50;;
11024;SDS011;22890;51.820;8.682;2023-02-15T02:58:48;1.57;;;1.17;;
11024;SDS011;22890;51.820;8.682;2023-02-15T03:01:24;1.97;;;1.57;;
11024;SDS011;22890;51.820;8.682;2023-02-15T03:03:57;2.50;;;1.70;;
11024;SDS011;22890;51.820;8.682;2023-02-15T03:06:29;3.10;;;1.70;;
11024;SDS011;22890;51.820;8.682;2023-02-15T03:09:12;2.47;;;1.27;;
11024;SDS011;22890;51.820;8.682;2023-02-15T03:11:43;3.17;;;1.80;;
11024;SDS011;22890;51.820;8.682;2023-02-15T03:14:12;1.83;;;1.40;;
11024;SDS011;22890;51.820;8.682;2023-02-15T03:16:43;3.50;;;1.60;;
11024;SDS011;22890;51.820;8.682;2023-02-15T03:19:14;2.67;;;1.60;;
11024;SDS011;22890;51.820;8.682;2023-02-15T03:21:56;3.17;;;1.50;;
11024;SDS011;22890;51.820;8.682;2023-02-15T03:24:41;1.80;;;1.33;;
11024;SDS011;22890;51.820;8.682;2023-02-15T03:27:14;2.87;;;1.80;;
11024;SDS011;22890;51.820;8.682;2023-02-15T03:29:54;3.37;;;1.43;;
11024;SDS011;22890;51.820;8.682;2023-02-15T03:32:24;3.80;;;1.63;;
11024;SDS011;22890;51.820;8.682;2023-02-15T03:34:53;1.73;;;1.27;;
11024;SDS011;22890;51.820;8.682;2023-02-15T03:37:26;4.77;;;1.80;;
11024;SDS011;22890;51.820;8.682;2023-02-15T03:40:07;3.30;;;2.03;;
11024;SDS011;22890;51.820;8.682;2023-02-15T03:42:59;2.97;;;1.67;;
11024;SDS011;22890;51.820;8.682;2023-02-15T03:45:33;3.17;;;2.07;;
11024;SDS011;22890;51.820;8.682;2023-02-15T03:48:02;4.73;;;2.37;;
11024;SDS011;22890;51.820;8.682;2023-02-15T03:50:31;2.50;;;1.70;;
11024;SDS011;22890;51.820;8.682;2023-02-15T03:53:20;4.03;;;2.10;;
11024;SDS011;22890;51.820;8.682;2023-02-15T03:55:49;3.93;;;2.27;;
11024;SDS011;22890;51.820;8.682;2023-02-15T03:58:20;2.70;;;1.73;;
11024;SDS011;22890;51.820;8.682;2023-02-15T04:01:19;2.63;;;1.80;;
11024;SDS011;22890;51.820;8.682;2023-02-15T04:04:21;3.57;;;1.90;;
11024;SDS011;22890;51.820;8.682;2023-02-15T04:06:54;3.30;;;2.53;;
11024;SDS011;22890;51.820;8.682;2023-02-15T04:09:21;5.07;;;2.27;;
11024;SDS011;22890;51.820;8.682;2023-02-15T04:12:07;2.50;;;2.00;;
11024;SDS011;22890;51.820;8.682;2023-02-15T04:14:33;3.90;;;2.00;;
11024;SDS011;22890;51.820;8.682;2023-02-15T04:17:19;2.83;;;2.23;;
11024;SDS011;22890;51.820;8.682;2023-02-15T04:19:47;3.00;;;1.93;;
11024;SDS011;22890;51.820;8.682;2023-02-15T04:22:32;3.07;;;2.10;;
11024;SDS011;22890;51.820;8.682;2023-02-15T04:25:18;3.80;;;2.33;;
11024;SDS011;22890;51.820;8.682;2023-02-15T04:27:55;4.43;;;2.67;;
11024;SDS011;22890;51.820;8.682;2023-02-15T04:30:22;5.77;;;3.40;;
11024;SDS011;22890;51.820;8.682;2023-02-15T04:32:51;4.50;;;3.37;;
11024;SDS011;22890;51.820;8.682;2023-02-15T04:35:18;3.17;;;2.20;;
11024;SDS011;22890;51.820;8.682;2023-02-15T04:37:44;3.93;;;2.60;;
11024;SDS011;22890;51.820;8.682;2023-02-15T04:40:13;4.13;;;3.33;;
11024;SDS011;22890;51.820;8.682;2023-02-15T04:42:45;3.33;;;2.17;;
11024;SDS011;22890;51.820;8.682;2023-02-15T04:45:13;5.40;;;3.27;;
11024;SDS011;22890;51.820;8.682;2023-02-15T04:47:40;3.40;;;2.47;;
11024;SDS011;22890;51.820;8.682;2023-02-15T04:50:08;4.77;;;3.20;;
11024;SDS011;22890;51.820;8.682;2023-02-15T04:52:35;4.60;;;3.10;;
11024;SDS011;22890;51.820;8.682;2023-02-15T04:55:02;5.77;;;3.37;;
11024;SDS011;22890;51.820;8.682;2023-02-15T04:57:29;6.27;;;3.30;;
11024;SDS011;22890;51.820;8.682;2023-02-15T04:59:56;4.73;;;2.90;;
11024;SDS011;22890;51.820;8.682;2023-02-15T05:02:25;5.83;;;3.30;;
11024;SDS011;22890;51.820;8.682;2023-02-15T05:04:52;2.93;;;2.43;;
11024;SDS011;22890;51.820;8.682;2023-02-15T05:07:19;5.07;;;3.23;;
11024;SDS011;22890;51.820;8.682;2023-02-15T05:09:49;8.30;;;4.00;;
11024;SDS011;22890;51.820;8.682;2023-02-15T05:12:16;6.47;;;3.63;;
11024;SDS011;22890;51.820;8.682;2023-02-15T05:14:43;7.80;;;4.03;;
11024;SDS011;22890;51.820;8.682;2023-02-15T05:17:09;6.40;;;3.90;;
11024;SDS011;22890;51.820;8.682;2023-02-15T05:19:36;6.80;;;4.40;;
11024;SDS011;22890;51.820;8.682;2023-02-15T05:22:04;6.93;;;4.90;;
11024;SDS011;22890;51.820;8.682;2023-02-15T05:24:31;5.93;;;3.87;;
11024;SDS011;22890;51.820;8.682;2023-02-15T05:27:16;7.03;;;4.37;;
11024;SDS011;22890;51.820;8.682;2023-02-15T05:30:02;6.53;;;3.57;;
11024;SDS011;22890;51.820;8.682;2023-02-15T05:32:29;7.17;;;4.03;;
11024;SDS011;22890;51.820;8.682;2023-02-15T05:34:56;7.13;;;4.37;;
11024;SDS011;22890;51.820;8.682;2023-02-15T05:37:23;5.40;;;3.70;;
11024;SDS011;22890;51.820;8.682;2023-02-15T05:39:50;6.07;;;4.10;;
11024;SDS011;22890;51.820;8.682;2023-02-15T05:42:18;7.80;;;4.60;;
11024;SDS011;22890;51.820;8.682;2023-02-15T05:44:45;7.20;;;4.87;;
11024;SDS011;22890;51.820;8.682;2023-02-15T05:47:12;7.63;;;4.17;;
11024;SDS011;22890;51.820;8.682;2023-02-15T05:49:39;8.47;;;4.70;;
11024;SDS011;22890;51.820;8.682;2023-02-15T05:52:05;6.83;;;4.17;;
11024;SDS011;22890;51.820;8.682;2023-02-15T05:54:32;7.57;;;4.63;;
11024;SDS011;22890;51.820;8.682;2023-02-15T05:56:59;6.23;;;4.13;;
11024;SDS011;22890;51.820;8.682;2023-02-15T05:59:26;4.77;;;3.73;;
11024;SDS011;22890;51.820;8.682;2023-02-15T06:01:53;5.60;;;3.67;;
11024;SDS011;22890;51.820;8.682;2023-02-15T06:04:20;4.90;;;3.73;;
11024;SDS011;22890;51.820;8.682;2023-02-15T06:06:47;6.43;;;3.67;;
11024;SDS011;22890;51.820;8.682;2023-02-15T06:09:14;7.97;;;4.93;;
11024;SDS011;22890;51.820;8.682;2023-02-15T06:11:44;6.57;;;4.13;;
11024;SDS011;22890;51.820;8.682;2023-02-15T06:14:11;9.10;;;4.20;;
11024;SDS011;22890;51.820;8.682;2023-02-15T06:16:38;6.17;;;4.00;;
11024;SDS011;22890;51.820;8.682;2023-02-15T06:19:05;10.07;;;4.67;;
11024;SDS011;22890;51.820;8.682;2023-02-15T06:21:32;7.37;;;4.00;;
11024;SDS011;22890;51.820;8.682;2023-02-15T06:23:59;13.60;;;4.73;;
11024;SDS011;22890;51.820;8.682;2023-02-15T06:26:27;8.13;;;4.50;;
11024;SDS011;22890;51.820;8.682;2023-02-15T06:28:54;7.87;;;4.07;;
11024;SDS011;22890;51.820;8.682;2023-02-15T06:31:21;11.13;;;6.07;;
11024;SDS011;22890;51.820;8.682;2023-02-15T06:33:48;21.73;;;6.80;;
11024;SDS011;22890;51.820;8.682;2023-02-15T06:36:15;12.77;;;6.67;;
11024;SDS011;22890;51.820;8.682;2023-02-15T06:38:42;27.77;;;9.97;;
11024;SDS011;22890;51.820;8.682;2023-02-15T06:41:09;17.00;;;8.50;;
11024;SDS011;22890;51.820;8.682;2023-02-15T06:43:36;16.23;;;7.23;;
11024;SDS011;22890;51.820;8.682;2023-02-15T06:46:05;10.90;;;5.87;;
11024;SDS011;22890;51.820;8.682;2023-02-15T06:48:32;10.30;;;5.17;;
11024;SDS011;22890;51.820;8.682;2023-02-15T06:50:59;9.13;;;5.17;;
11024;SDS011;22890;51.820;8.682;2023-02-15T06:53:26;8.77;;;5.03;;
11024;SDS011;22890;51.820;8.682;2023-02-15T06:55:59;10.57;;;5.23;;
11024;SDS011;22890;51.820;8.682;2023-02-15T06:58:27;8.57;;;4.90;;
11024;SDS011;22890;51.820;8.682;2023-02-15T07:00:54;7.80;;;5.37;;
11024;SDS011;22890;51.820;8.682;2023-02-15T07:03:21;7.90;;;4.90;;
11024;SDS011;22890;51.820;8.682;2023-02-15T07:05:48;9.17;;;5.43;;
11024;SDS011;22890;51.820;8.682;2023-02-15T07:08:15;11.83;;;5.43;;
11024;SDS011;22890;51.820;8.682;2023-02-15T07:10:45;7.93;;;5.00;;
11024;SDS011;22890;51.820;8.682;2023-02-15T07:13:12;8.30;;;4.57;;
11024;SDS011;22890;51.820;8.682;2023-02-15T07:15:39;8.53;;;5.17;;
11024;SDS011;22890;51.820;8.682;2023-02-15T07:18:05;8.90;;;5.53;;
11024;SDS011;22890;51.820;8.682;2023-02-15T07:20:32;10.27;;;5.20;;
11024;SDS011;22890;51.820;8.682;2023-02-15T07:23:03;10.17;;;5.27;;
11024;SDS011;22890;51.820;8.682;2023-02-15T07:25:30;9.93;;;5.97;;
11024;SDS011;22890;51.820;8.682;2023-02-15T07:28:01;7.37;;;4.30;;
11024;SDS011;22890;51.820;8.682;2023-02-15T07:30:29;6.37;;;3.60;;
11024;SDS011;22890;51.820;8.682;2023-02-15T07:32:56;8.03;;;4.83;;
11024;SDS011;22890;51.820;8.682;2023-02-15T07:35:49;7.03;;;4.53;;
11024;SDS011;22890;51.820;8.682;2023-02-15T07:38:17;6.80;;;4.30;;
11024;SDS011;22890;51.820;8.682;2023-02-15T07:40:44;6.13;;;3.87;;
11024;SDS011;22890;51.820;8.682;2023-02-15T07:43:11;8.80;;;4.73;;
11024;SDS011;22890;51.820;8.682;2023-02-15T07:45:39;6.30;;;4.83;;
11024;SDS011;22890;51.820;8.682;2023-02-15T07:48:06;12.30;;;4.57;;
11024;SDS011;22890;51.820;8.682;2023-02-15T07:50:33;7.13;;;4.83;;
11024;SDS011;22890;51.820;8.682;2023-02-15T07:53:01;9.37;;;5.43;;
11024;SDS011;22890;51.820;8.682;2023-02-15T07:55:28;7.03;;;5.03;;
11024;SDS011;22890;51.820;8.682;2023-02-15T07:57:55;7.03;;;4.60;;
11024;SDS011;22890;51.820;8.682;2023-02-15T08:00:23;8.73;;;4.73;;
11024;SDS011;22890;51.820;8.682;2023-02-15T08:02:51;7.10;;;4.37;;
11024;SDS011;22890;51.820;8.682;2023-02-15T08:05:42;6.73;;;4.57;;
11024;SDS011;22890;51.820;8.682;2023-02-15T08:08:10;6.93;;;4.70;;
11024;SDS011;22890;51.820;8.682;2023-02-15T08:11:07;5.77;;;4.03;;
11024;SDS011;22890;51.820;8.682;2023-02-15T08:14:00;9.10;;;5.03;;
11024;SDS011;22890;51.820;8.682;2023-02-15T08:16:40;6.70;;;4.70;;
11024;SDS011;22890;51.820;8.682;2023-02-15T08:19:16;6.50;;;4.80;;
11024;SDS011;22890;51.820;8.682;2023-02-15T08:21:44;8.30;;;4.63;;
11024;SDS011;22890;51.820;8.682;2023-02-15T08:24:13;9.40;;;5.73;;
11024;SDS011;22890;51.820;8.682;2023-02-15T08:26:41;11.23;;;5.07;;
11024;SDS011;22890;51.820;8.682;2023-02-15T08:29:10;8.17;;;5.13;;
11024;SDS011;22890;51.820;8.682;2023-02-15T08:31:38;9.93;;;5.37;;
11024;SDS011;22890;51.820;8.682;2023-02-15T08:34:07;9.43;;;4.90;;
11024;SDS011;22890;51.820;8.682;2023-02-15T08:36:35;12.03;;;5.47;;
11024;SDS011;22890;51.820;8.682;2023-02-15T08:39:03;11.80;;;6.97;;
11024;SDS011;22890;51.820;8.682;2023-02-15T08:41:32;9.30;;;5.97;;
11024;SDS011;22890;51.820;8.682;2023-02-15T08:44:01;8.93;;;5.97;;
11024;SDS011;22890;51.820;8.682;2023-02-15T08:46:30;10.60;;;6.20;;
11024;SDS011;22890;51.820;8.682;2023-02-15T08:49:00;11.33;;;7.07;;
11024;SDS011;22890;51.820;8.682;2023-02-15T08:51:29;8.50;;;6.23;;
11024;SDS011;22890;51.820;8.682;2023-02-15T08:53:58;9.77;;;6.20;;
11024;SDS011;22890;51.820;8.682;2023-02-15T08:56:28;12.50;;;6.47;;
11024;SDS011;22890;51.820;8.682;2023-02-15T08:58:57;10.17;;;6.43;;
11024;SDS011;22890;51.820;8.682;2023-02-15T09:01:26;11.37;;;6.63;;
11024;SDS011;22890;51.820;8.682;2023-02-15T09:03:56;10.50;;;5.73;;
11024;SDS011;22890;51.820;8.682;2023-02-15T09:06:31;10.10;;;6.20;;
11024;SDS011;22890;51.820;8.682;2023-02-15T09:08:59;10.10;;;5.90;;
11024;SDS011;22890;51.820;8.682;2023-02-15T09:11:26;9.97;;;5.67;;
11024;SDS011;22890;51.820;8.682;2023-02-15T09:13:58;11.67;;;5.73;;
11024;SDS011;22890;51.820;8.682;2023-02-15T09:16:28;11.00;;;6.50;;
11024;SDS011;22890;51.820;8.682;2023-02-15T09:18:56;10.57;;;6.00;;
11024;SDS011;22890;51.820;8.682;2023-02-15T09:21:25;7.73;;;5.03;;
11024;SDS011;22890;51.820;8.682;2023-02-15T09:23:55;11.23;;;6.10;;
11024;SDS011;22890;51.820;8.682;2023-02-15T09:26:24;10.67;;;6.10;;
11024;SDS011;22890;51.820;8.682;2023-02-15T09:28:53;8.40;;;5.63;;
11024;SDS011;22890;51.820;8.682;2023-02-15T09:31:23;10.07;;;5.70;;
11024;SDS011;22890;51.820;8.682;2023-02-15T09:33:52;10.53;;;6.47;;
11024;SDS011;22890;51.820;8.682;2023-02-15T09:36:25;10.00;;;6.03;;
11024;SDS011;22890;51.820;8.682;2023-02-15T09:39:06;8.63;;;5.23;;
11024;SDS011;22890;51.820;8.682;2023-02-15T09:41:52;7.50;;;5.70;;
11024;SDS011;22890;51.820;8.682;2023-02-15T09:55:21;11.00;;;6.90;;
11024;SDS011;22890;51.820;8.682;2023-02-15T10:03:22;8.80;;;5.30;;
11024;SDS011;22890;51.820;8.682;2023-02-15T10:08:39;17.90;;;12.50;;
11024;SDS011;22890;51.820;8.682;2023-02-15T10:11:29;9.73;;;5.67;;
11024;SDS011;22890;51.820;8.682;2023-02-15T10:24:48;8.77;;;5.77;;
11024;SDS011;22890;51.820;8.682;2023-02-15T10:27:21;7.87;;;5.13;;
11024;SDS011;22890;51.820;8.682;2023-02-15T10:29:55;6.77;;;4.57;;
11024;SDS011;22890;51.820;8.682;2023-02-15T10:32:25;9.13;;;4.90;;
11024;SDS011;22890;51.820;8.682;2023-02-15T10:35:03;8.03;;;5.57;;
11024;SDS011;22890;51.820;8.682;2023-02-15T10:37:54;17.27;;;8.93;;
11024;SDS011;22890;51.820;8.682;2023-02-15T10:43:25;11.70;;;6.30;;
11024;SDS011;22890;51.820;8.682;2023-02-15T10:48:54;18.37;;;9.80;;
11024;SDS011;22890;51.820;8.682;2023-02-15T10:54:24;11.93;;;7.30;;
11024;SDS011;22890;51.820;8.682;2023-02-15T10:57:04;12.77;;;7.93;;
11024;SDS011;22890;51.820;8.682;2023-02-15T11:07:47;9.67;;;5.67;;
11024;SDS011;22890;51.820;8.682;2023-02-15T11:10:33;8.50;;;5.73;;
11024;SDS011;22890;51.820;8.682;2023-02-15T11:13:02;11.80;;;7.40;;
11024;SDS011;22890;51.820;8.682;2023-02-15T11:15:47;8.70;;;5.70;;
11024;SDS011;22890;51.820;8.682;2023-02-15T11:18:21;9.83;;;6.27;;
11024;SDS011;22890;51.820;8.682;2023-02-15T11:20:52;9.40;;;6.20;;
11024;SDS011;22890;51.820;8.682;2023-02-15T11:23:40;15.00;;;5.03;;
11024;SDS011;22890;51.820;8.682;2023-02-15T11:29:18;8.77;;;5.97;;
11024;SDS011;22890;51.820;8.682;2023-02-15T11:32:25;7.57;;;5.43;;
11024;SDS011;22890;51.820;8.682;2023-02-15T11:37:40;8.67;;;6.03;;
11024;SDS011;22890;51.820;8.682;2023-02-15T11:40:27;9.60;;;5.80;;
11024;SDS011;22890;51.820;8.682;2023-02-15T11:43:04;10.80;;;6.10;;
11024;SDS011;22890;51.820;8.682;2023-02-15T11:45:34;9.57;;;6.70;;
11024;SDS011;22890;51.820;8.682;2023-02-15T11:48:01;9.83;;;5.80;;
11024;SDS011;22890;51.820;8.682;2023-02-15T11:50:35;9.70;;;6.37;;
11024;SDS011;22890;51.820;8.682;2023-02-15T11:53:16;10.27;;;6.60;;
11024;SDS011;22890;51.820;8.682;2023-02-15T11:55:44;11.30;;;6.00;;
11024;SDS011;22890;51.820;8.682;2023-02-15T11:58:21;9.80;;;6.43;;
11024;SDS011;22890;51.820;8.682;2023-02-15T12:01:07;10.13;;;6.23;;
11024;SDS011;22890;51.820;8.682;2023-02-15T12:03:46;8.97;;;6.33;;
11024;SDS011;22890;51.820;8.682;2023-02-15T12:06:24;13.23;;;6.97;;
11024;SDS011;22890;51.820;8.682;2023-02-15T12:09:00;8.20;;;6.00;;
11024;SDS011;22890;51.820;8.682;2023-02-15T12:11:31;10.70;;;6.03;;
11024;SDS011;22890;51.820;8.682;2023-02-15T12:14:08;10.07;;;6.63;;
11024;SDS011;22890;51.820;8.682;2023-02-15T12:16:46;10.83;;;6.17;;
11024;SDS011;22890;51.820;8.682;2023-02-15T12:19:19;9.67;;;6.53;;
11024;SDS011;22890;51.820;8.682;2023-02-15T12:21:52;9.83;;;6.40;;
11024;SDS011;22890;51.820;8.682;2023-02-15T12:24:21;15.63;;;6.83;;
11024;SDS011;22890;51.820;8.682;2023-02-15T12:27:13;9.67;;;5.80;;
11024;SDS011;22890;51.820;8.682;2023-02-15T12:29:49;11.77;;;7.10;;
11024;SDS011;22890;51.820;8.682;2023-02-15T12:32:30;11.37;;;6.97;;
11024;SDS011;22890;51.820;8.682;2023-02-15T12:35:01;9.47;;;6.43;;
11024;SDS011;22890;51.820;8.682;2023-02-15T12:37:35;11.53;;;6.57;;
11024;SDS011;22890;51.820;8.682;2023-02-15T12:40:18;12.07;;;7.10;;
11024;SDS011;22890;51.820;8.682;2023-02-15T12:42:47;10.10;;;6.93;;
11024;SDS011;22890;51.820;8.682;2023-02-15T12:45:22;13.03;;;6.13;;
11024;SDS011;22890;51.820;8.682;2023-02-15T12:50:42;15.60;;;7.87;;
11024;SDS011;22890;51.820;8.682;2023-02-15T12:53:22;12.33;;;7.43;;
11024;SDS011;22890;51.820;8.682;2023-02-15T12:55:58;12.57;;;7.37;;
11024;SDS011;22890;51.820;8.682;2023-02-15T12:58:30;10.30;;;6.60;;
11024;SDS011;22890;51.820;8.682;2023-02-15T13:01:09;11.60;;;6.60;;
11024;SDS011;22890;51.820;8.682;2023-02-15T13:03:55;9.57;;;6.10;;
11024;SDS011;22890;51.820;8.682;2023-02-15T13:06:25;14.57;;;6.40;;
11024;SDS011;22890;51.820;8.682;2023-02-15T13:08:54;15.70;;;7.57;;
11024;SDS011;22890;51.820;8.682;2023-02-15T13:11:25;13.03;;;7.30;;
11024;SDS011;22890;51.820;8.682;2023-02-15T13:13:58;11.13;;;6.17;;
11024;SDS011;22890;51.820;8.682;2023-02-15T13:16:38;13.20;;;7.73;;
11024;SDS011;22890;51.820;8.682;2023-02-15T13:19:09;10.73;;;6.77;;
11024;SDS011;22890;51.820;8.682;2023-02-15T13:21:43;9.77;;;5.87;;
11024;SDS011;22890;51.820;8.682;2023-02-15T13:24:22;11.50;;;6.17;;
11024;SDS011;22890;51.820;8.682;2023-02-15T13:26:52;11.93;;;7.20;;
11024;SDS011;22890;51.820;8.682;2023-02-15T13:29:39;10.33;;;6.57;;
11024;SDS011;22890;51.820;8.682;2023-02-15T13:32:22;12.83;;;6.90;;
11024;SDS011;22890;51.820;8.682;2023-02-15T13:34:54;10.90;;;6.57;;
11024;SDS011;22890;51.820;8.682;2023-02-15T13:37:33;10.67;;;6.83;;
11024;SDS011;22890;51.820;8.682;2023-02-15T13:40:21;11.57;;;7.10;;
11024;SDS011;22890;51.820;8.682;2023-02-15T13:42:54;9.43;;;5.77;;
11024;SDS011;22890;51.820;8.682;2023-02-15T13:45:28;9.77;;;6.63;;
11024;SDS011;22890;51.820;8.682;2023-02-15T13:47:59;13.00;;;8.20;;
11024;SDS011;22890;51.820;8.682;2023-02-15T13:50:38;13.40;;;6.53;;
11024;SDS011;22890;51.820;8.682;2023-02-15T13:53:22;11.40;;;6.70;;
11024;SDS011;22890;51.820;8.682;2023-02-15T13:56:10;11.77;;;7.63;;
11024;SDS011;22890;51.820;8.682;2023-02-15T14:09:30;9.70;;;6.20;;
11024;SDS011;22890;51.820;8.682;2023-02-15T14:12:23;10.83;;;6.77;;
11024;SDS011;22890;51.820;8.682;2023-02-15T14:17:50;10.97;;;6.13;;
11024;SDS011;22890;51.820;8.682;2023-02-15T14:23:26;10.30;;;6.33;;
11024;SDS011;22890;51.820;8.682;2023-02-15T14:26:03;8.87;;;5.97;;
11024;SDS011;22890;51.820;8.682;2023-02-15T14:31:44;12.90;;;6.87;;
11024;SDS011;22890;51.820;8.682;2023-02-15T14:34:22;8.30;;;5.40;;
11024;SDS011;22890;51.820;8.682;2023-02-15T14:36:53;9.00;;;5.60;;
11024;SDS011;22890;51.820;8.682;2023-02-15T14:39:42;8.43;;;5.73;;
11024;SDS011;22890;51.820;8.682;2023-02-15T14:42:47;8.00;;;5.20;;
11024;SDS011;22890;51.820;8.682;2023-02-15T14:47:57;11.13;;;5.70;;
11024;SDS011;22890;51.820;8.682;2023-02-15T14:50:39;9.50;;;5.97;;
11024;SDS011;22890;51.820;8.682;2023-02-15T14:56:16;9.57;;;5.83;;
11024;SDS011;22890;51.820;8.682;2023-02-15T15:01:25;9.00;;;6.23;;
11024;SDS011;22890;51.820;8.682;2023-02-15T15:03:55;7.70;;;5.80;;
11024;SDS011;22890;51.820;8.682;2023-02-15T15:06:29;10.47;;;5.70;;
11024;SDS011;22890;51.820;8.682;2023-02-15T15:09:09;8.77;;;5.37;;
11024;SDS011;22890;51.820;8.682;2023-02-15T15:11:48;7.93;;;5.13;;
11024;SDS011;22890;51.820;8.682;2023-02-15T15:16:59;7.20;;;4.83;;
11024;SDS011;22890;51.820;8.682;2023-02-15T15:22:24;8.00;;;5.53;;
11024;SDS011;22890;51.820;8.682;2023-02-15T15:35:35;8.17;;;5.90;;
11024;SDS011;22890;51.820;8.682;2023-02-15T15:49:36;8.23;;;5.53;;
11024;SDS011;22890;51.820;8.682;2023-02-15T15:52:20;7.63;;;5.10;;
11024;SDS011;22890;51.820;8.682;2023-02-15T15:54:50;7.83;;;5.37;;
11024;SDS011;22890;51.820;8.682;2023-02-15T15:57:23;7.10;;;5.47;;
11024;SDS011;22890;51.820;8.682;2023-02-15T15:59:58;8.40;;;5.97;;
11024;SDS011;22890;51.820;8.682;2023-02-15T16:02:26;6.27;;;5.37;;
11024;SDS011;22890;51.820;8.682;2023-02-15T16:04:53;7.63;;;5.40;;
11024;SDS011;22890;51.820;8.682;2023-02-15T16:07:22;7.30;;;5.60;;
11024;SDS011;22890;51.820;8.682;2023-02-15T16:09:58;7.43;;;5.83;;
11024;SDS011;22890;51.820;8.682;2023-02-15T16:12:33;8.03;;;5.27;;
11024;SDS011;22890;51.820;8.682;2023-02-15T16:15:13;8.23;;;6.00;;
11024;SDS011;22890;51.820;8.682;2023-02-15T16:17:43;7.93;;;6.20;;
11024;SDS011;22890;51.820;8.682;2023-02-15T16:20:15;8.97;;;5.67;;
11024;SDS011;22890;51.820;8.682;2023-02-15T16:22:48;7.53;;;5.07;;
11024;SDS011;22890;51.820;8.682;2023-02-15T16:27:53;7.17;;;5.40;;
11024;SDS011;22890;51.820;8.682;2023-02-15T16:30:20;6.93;;;5.67;;
11024;SDS011;22890;51.820;8.682;2023-02-15T16:32:52;18.50;;;15.53;;
11024;SDS011;22890;51.820;8.682;2023-02-15T16:35:21;9.33;;;6.40;;
11024;SDS011;22890;51.820;8.682;2023-02-15T16:37:49;8.30;;;6.40;;
11024;SDS011;22890;51.820;8.682;2023-02-15T16:42:50;9.20;;;6.03;;
11024;SDS011;22890;51.820;8.682;2023-02-15T16:45:18;11.97;;;6.47;;
11024;SDS011;22890;51.820;8.682;2023-02-15T16:47:48;12.63;;;9.83;;
11024;SDS011;22890;51.820;8.682;2023-02-15T16:52:57;7.70;;;6.00;;
11024;SDS011;22890;51.820;8.682;2023-02-15T16:55:26;9.30;;;6.00;;
11024;SDS011;22890;51.820;8.682;2023-02-15T16:57:59;7.20;;;5.43;;
11024;SDS011;22890;51.820;8.682;2023-02-15T17:00:31;8.97;;;6.67;;
11024;SDS011;22890;51.820;8.682;2023-02-15T17:03:05;8.07;;;5.43;;
11024;SDS011;22890;51.820;8.682;2023-02-15T17:05:54;7.97;;;5.83;;
11024;SDS011;22890;51.820;8.682;2023-02-15T17:13:26;7.47;;;5.83;;
11024;SDS011;22890;51.820;8.682;2023-02-15T17:18:27;8.53;;;5.80;;
11024;SDS011;22890;51.820;8.682;2023-02-15T17:20:59;10.37;;;6.00;;
11024;SDS011;22890;51.820;8.682;2023-02-15T17:23:32;12.97;;;6.13;;
11024;SDS011;22890;51.820;8.682;2023-02-15T17:26:10;8.80;;;6.27;;
11024;SDS011;22890;51.820;8.682;2023-02-15T17:31:19;7.13;;;5.50;;
11024;SDS011;22890;51.820;8.682;2023-02-15T17:33:47;10.07;;;7.23;;
11024;SDS011;22890;51.820;8.682;2023-02-15T17:36:16;10.57;;;7.07;;
11024;SDS011;22890;51.820;8.682;2023-02-15T17:43:50;8.70;;;6.27;;
11024;SDS011;22890;51.820;8.682;2023-02-15T17:46:17;9.50;;;6.60;;